Time;durP1;ratioP1;P1;durP2;ratioP2;P2;SDS_P1;SDS_P2;PMS_P1;PMS_P2;Temp;Humidity;BMP_temperature;BMP_pressure;BME280_temperature;BME280_humidity;BME280_pressure;Samples;Min_cycle;Max_cycle;Signal;HPM_P1;HPM_P2
2022/11/10 00:00:04;;;;;;;1.83;1.50;;;10.50;99.90;;;;;;5054972;28;20690;-81
2022/11/10 00:02:30;;;;;;;1.90;1.50;;;10.50;99.90;;;;;;5053988;28;20178;-81
2022/11/10 00:04:56;;;;;;;2.07;1.33;;;10.40;99.90;;;;;;5053203;28;20906;-75
2022/11/10 00:07:26;;;;;;;1.80;1.53;;;10.40;99.90;;;;;;5053283;28;20667;-76
2022/11/10 00:09:53;;;;;;;2.70;1.47;;;10.50;99.90;;;;;;5053805;28;20183;-81
2022/11/10 00:12:20;;;;;;;2.37;1.87;;;10.40;99.90;;;;;;5054742;28;20388;-76
2022/11/10 00:17:30;;;;;;;1.67;1.50;;;10.40;99.90;;;;;;5053562;28;20522;-75
2022/11/10 00:19:57;;;;;;;4.53;1.90;;;10.40;99.90;;;;;;5054464;28;20790;-79
2022/11/10 00:22:22;;;;;;;3.10;1.43;;;10.40;99.90;;;;;;5052768;28;20178;-76
2022/11/10 00:24:48;;;;;;;2.23;1.73;;;10.40;99.90;;;;;;5052494;28;20456;-81
2022/11/10 00:27:14;;;;;;;5.50;2.10;;;10.30;99.90;;;;;;5053389;28;20282;-81
2022/11/10 00:29:40;;;;;;;3.47;1.27;;;10.30;99.90;;;;;;5054291;28;20471;-76
2022/11/10 00:32:07;;;;;;;4.97;1.80;;;10.30;99.90;;;;;;5054162;28;20170;-76
2022/11/10 00:34:33;;;;;;;1.57;1.47;;;10.40;99.90;;;;;;5053331;28;20474;-76
2022/11/10 00:36:58;;;;;;;2.90;1.57;;;10.30;99.90;;;;;;5052948;28;20469;-76
2022/11/10 00:39:24;;;;;;;6.17;1.70;;;10.40;99.90;;;;;;5054256;28;20405;-76
2022/11/10 00:41:50;;;;;;;2.40;1.37;;;10.30;99.90;;;;;;5052723;28;20182;-80
2022/11/10 00:44:16;;;;;;;2.33;1.40;;;10.30;99.90;;;;;;5053004;28;20188;-80
2022/11/10 00:46:41;;;;;;;1.90;1.33;;;10.20;99.90;;;;;;5053023;28;20431;-81
2022/11/10 00:49:07;;;;;;;2.00;1.10;;;10.20;99.90;;;;;;5053984;28;20171;-80
2022/11/10 00:51:33;;;;;;;3.00;1.37;;;10.20;99.90;;;;;;5054141;28;20182;-80
2022/11/10 00:53:59;;;;;;;7.87;1.63;;;10.20;99.90;;;;;;5053091;28;20182;-77
2022/11/10 00:56:25;;;;;;;3.80;1.50;;;10.20;99.90;;;;;;5052774;28;20206;-76
2022/11/10 00:58:51;;;;;;;2.20;1.67;;;10.30;99.90;;;;;;5053351;28;20224;-80
2022/11/10 01:01:18;;;;;;;2.60;1.70;;;10.30;99.90;;;;;;5052690;28;20432;-81
2022/11/10 01:03:44;;;;;;;10.73;1.93;;;10.20;99.90;;;;;;5052754;28;20484;-80
2022/11/10 01:06:13;;;;;;;1.70;1.30;;;10.30;99.90;;;;;;5052624;28;20952;-79
2022/11/10 01:08:40;;;;;;;1.87;1.70;;;10.30;99.90;;;;;;5052987;28;20876;-75
2022/11/10 01:11:09;;;;;;;3.33;2.00;;;10.30;99.90;;;;;;5052373;28;20417;-77
2022/11/10 01:13:35;;;;;;;4.23;1.60;;;10.30;99.90;;;;;;5053260;28;20463;-76
2022/11/10 01:16:13;;;;;;;2.70;1.67;;;10.20;99.90;;;;;;5052451;28;20424;-78
2022/11/10 01:18:39;;;;;;;4.10;2.00;;;10.30;99.90;;;;;;5053390;28;20436;-82
2022/11/10 01:21:05;;;;;;;3.40;1.80;;;10.30;99.90;;;;;;5052743;28;20755;-79
2022/11/10 01:23:31;;;;;;;1.70;1.60;;;10.30;99.90;;;;;;5053240;28;20635;-80
2022/11/10 01:26:04;;;;;;;5.60;1.43;;;10.20;99.90;;;;;;5052616;28;20478;-80
2022/11/10 01:28:31;;;;;;;6.40;1.67;;;10.20;99.90;;;;;;5052335;28;20937;-79
2022/11/10 01:31:04;;;;;;;2.20;1.40;;;10.30;99.90;;;;;;5052484;28;20427;-80
2022/11/10 01:33:30;;;;;;;3.40;1.60;;;10.20;99.90;;;;;;5052922;28;20404;-76
2022/11/10 01:35:57;;;;;;;1.40;1.30;;;10.20;99.90;;;;;;5051171;28;20423;-76
2022/11/10 01:38:25;;;;;;;2.60;1.73;;;10.10;99.90;;;;;;5052067;28;20971;-79
2022/11/10 01:40:51;;;;;;;2.00;1.90;;;10.20;99.90;;;;;;5053184;28;20736;-80
2022/11/10 01:43:17;;;;;;;1.87;1.73;;;10.20;99.90;;;;;;5053160;28;20450;-80
2022/11/10 01:45:55;;;;;;;1.90;1.80;;;10.30;99.90;;;;;;5051320;28;20205;-75
2022/11/10 01:48:38;;;;;;;7.27;1.97;;;10.30;99.90;;;;;;5052472;28;20192;-81
2022/11/10 01:51:31;;;;;;;7.90;2.60;;;10.30;99.90;;;;;;5055958;28;20948;-74
2022/11/10 01:54:05;;;;;;;1.50;1.40;;;10.30;99.90;;;;;;5056026;28;20408;-80
2022/11/10 01:56:35;;;;;;;4.50;1.67;;;10.30;99.90;;;;;;5056118;28;20460;-74
2022/11/10 01:59:06;;;;;;;2.27;1.37;;;10.30;99.90;;;;;;5057121;28;20400;-80
2022/11/10 02:01:31;;;;;;;1.90;1.67;;;10.30;99.90;;;;;;5056298;28;20425;-81
2022/11/10 02:04:10;;;;;;;1.97;1.40;;;10.20;99.90;;;;;;5056161;28;20455;-81
2022/11/10 02:06:41;;;;;;;3.87;1.80;;;10.20;99.90;;;;;;5057020;28;20198;-81
2022/11/10 02:09:07;;;;;;;3.87;1.30;;;10.20;99.90;;;;;;5057068;28;20397;-82
2022/11/10 02:11:34;;;;;;;1.60;1.50;;;10.20;99.90;;;;;;5055543;28;20856;-75
2022/11/10 02:14:01;;;;;;;1.77;1.10;;;10.10;99.90;;;;;;5054792;28;20747;-74
2022/11/10 02:16:27;;;;;;;1.53;1.13;;;10.20;99.90;;;;;;5056774;28;20418;-74
2022/11/10 02:18:53;;;;;;;2.13;1.90;;;10.10;99.90;;;;;;5055941;28;20428;-79
2022/11/10 02:21:20;;;;;;;3.07;2.10;;;10.20;99.90;;;;;;5056924;28;20404;-81
2022/11/10 02:23:51;;;;;;;2.50;1.50;;;10.20;99.90;;;;;;5055002;28;20177;-79
2022/11/10 02:26:22;;;;;;;3.40;1.70;;;10.20;99.90;;;;;;5056627;28;20421;-81
2022/11/10 02:28:47;;;;;;;4.30;1.80;;;10.20;99.90;;;;;;5055290;28;20453;-78
2022/11/10 02:31:14;;;;;;;7.27;2.63;;;10.20;99.90;;;;;;5056583;28;20917;-80
2022/11/10 02:33:43;;;;;;;8.77;3.40;;;10.10;99.90;;;;;;5054538;28;20221;-74
2022/11/10 02:36:09;;;;;;;3.63;2.60;;;10.10;99.90;;;;;;5056434;28;20451;-73
2022/11/10 02:38:35;;;;;;;4.13;2.70;;;10.10;99.90;;;;;;5056445;28;20503;-73
2022/11/10 02:41:01;;;;;;;4.10;2.70;;;10.10;1.00;;;;;;5056243;28;20413;-73
2022/11/10 02:43:27;;;;;;;3.30;3.00;;;10.10;1.00;;;;;;5054927;28;20491;-74
2022/11/10 02:45:56;;;;;;;3.00;2.40;;;10.10;1.00;;;;;;5055349;28;20191;-73
2022/11/10 02:48:21;;;;;;;7.50;2.67;;;10.10;1.00;;;;;;5056422;28;20435;-71
2022/11/10 02:50:47;;;;;;;3.23;2.97;;;10.10;1.00;;;;;;5055621;28;20471;-73
2022/11/10 02:53:13;;;;;;;8.87;3.10;;;9.90;1.00;;;;;;5070429;28;20597;-78
2022/11/10 02:55:39;;;;;;;4.50;3.80;;;9.90;1.00;;;;;;5054183;28;20568;-80
2022/11/10 02:58:05;;;;;;;6.27;4.17;;;10.00;1.00;;;;;;5055011;28;20266;-79
2022/11/10 03:00:31;;;;;;;6.73;3.87;;;10.00;1.00;;;;;;5056103;28;20233;-72
2022/11/10 03:03:01;;;;;;;6.03;5.00;;;10.00;1.00;;;;;;5054503;28;20432;-72
2022/11/10 03:05:28;;;;;;;9.80;4.30;;;9.90;1.00;;;;;;5054874;28;20424;-71
2022/11/10 03:07:59;;;;;;;5.80;4.63;;;9.90;1.00;;;;;;5055740;28;20406;-72
2022/11/10 03:10:27;;;;;;;8.27;5.00;;;9.90;1.00;;;;;;5054762;28;20446;-79
2022/11/10 03:12:58;;;;;;;19.80;6.57;;;9.90;1.00;;;;;;5054866;28;20458;-78
2022/11/10 03:15:24;;;;;;;8.07;5.20;;;9.90;1.00;;;;;;5054753;28;20408;-72
2022/11/10 03:17:50;;;;;;;6.87;5.57;;;9.90;1.00;;;;;;5055546;28;20434;-78
2022/11/10 03:20:16;;;;;;;10.43;5.63;;;9.90;1.00;;;;;;5055333;28;20486;-71
2022/11/10 03:22:42;;;;;;;11.80;5.93;;;9.90;1.00;;;;;;5049887;28;20451;-72
2022/11/10 03:25:09;;;;;;;7.07;5.33;;;9.90;1.00;;;;;;5047870;28;20436;-79
2022/11/10 03:27:34;;;;;;;10.33;5.37;;;9.90;1.00;;;;;;5054604;28;20216;-72
2022/11/10 03:30:00;;;;;;;13.80;6.73;;;9.90;1.00;;;;;;5054411;28;20762;-79
2022/11/10 03:32:26;;;;;;;9.30;5.30;;;9.80;1.00;;;;;;5054451;28;20193;-79
2022/11/10 03:34:52;;;;;;;7.10;5.37;;;9.80;1.00;;;;;;5054073;28;20325;-72
2022/11/10 03:37:17;;;;;;;9.23;5.60;;;9.80;1.00;;;;;;5053753;28;20205;-79
2022/11/10 03:39:43;;;;;;;7.50;5.47;;;9.80;1.00;;;;;;5055204;28;20181;-79
2022/11/10 03:42:09;;;;;;;7.90;5.23;;;9.80;1.20;;;;;;5054443;28;20183;-73
2022/11/10 03:44:34;;;;;;;9.37;5.20;;;9.70;14.40;;;;;;5054422;28;20174;-72
2022/11/10 03:47:02;;;;;;;7.70;5.80;;;9.70;26.40;;;;;;5055051;28;20206;-72
2022/11/10 03:49:29;;;;;;;12.33;5.23;;;9.60;15.10;;;;;;5053990;28;20186;-79
2022/11/10 03:51:55;;;;;;;7.80;5.17;;;9.60;15.10;;;;;;5054082;28;20407;-73
2022/11/10 03:54:20;;;;;;;8.90;5.60;;;9.60;21.90;;;;;;5034053;28;20892;-76
2022/11/10 03:56:46;;;;;;;4.83;4.30;;;9.60;25.20;;;;;;5034640;28;20212;-79
2022/11/10 03:59:12;;;;;;;6.53;5.27;;;9.50;33.10;;;;;;5033916;28;20264;-79
2022/11/10 04:01:38;;;;;;;5.60;4.60;;;9.50;35.90;;;;;;5034689;28;20225;-79
2022/11/10 04:04:04;;;;;;;9.07;4.73;;;9.50;41.10;;;;;;5051045;28;20201;-73
2022/11/10 04:09:14;;;;;;;7.23;4.33;;;9.50;48.40;;;;;;5053954;28;20902;-79
2022/11/10 04:17:08;;;;;;;6.53;4.20;;;9.30;34.50;;;;;;5053756;28;20537;-73
2022/11/10 04:19:34;;;;;;;6.23;4.23;;;9.30;32.60;;;;;;5053644;28;20504;-73
2022/11/10 04:22:00;;;;;;;6.33;3.70;;;9.30;32.90;;;;;;5054528;28;20405;-73
2022/11/10 04:24:28;;;;;;;9.83;4.00;;;9.30;35.60;;;;;;5053693;28;20409;-73
2022/11/10 04:26:57;;;;;;;6.27;4.20;;;9.30;28.90;;;;;;5054097;28;20229;-74
2022/11/10 04:29:23;;;;;;;8.93;4.77;;;9.30;24.50;;;;;;5052452;28;20767;-73
2022/11/10 04:31:48;;;;;;;5.47;4.97;;;9.20;34.20;;;;;;5054201;28;20454;-73
2022/11/10 04:34:17;;;;;;;6.70;4.47;;;9.10;41.70;;;;;;5053275;28;20173;-79
2022/11/10 04:36:43;;;;;;;7.70;4.13;;;9.10;49.90;;;;;;5053102;28;20202;-79
2022/11/10 04:39:09;;;;;;;10.60;5.50;;;9.10;54.40;;;;;;5054214;28;20863;-72
2022/11/10 04:41:35;;;;;;;7.80;4.77;;;9.10;61.40;;;;;;5052358;28;20445;-79
2022/11/10 04:44:01;;;;;;;5.50;4.57;;;9.00;63.10;;;;;;5053073;28;20400;-80
2022/11/10 04:46:27;;;;;;;5.60;4.70;;;9.10;70.90;;;;;;5052896;28;20455;-80
2022/11/10 04:48:54;;;;;;;6.50;4.80;;;9.00;70.30;;;;;;5053782;28;20179;-80
2022/11/10 04:51:23;;;;;;;6.50;5.43;;;9.00;75.20;;;;;;5052988;28;20180;-72
2022/11/10 04:53:49;;;;;;;10.80;5.27;;;9.00;72.60;;;;;;5052942;28;20405;-74
2022/11/10 04:56:20;;;;;;;7.33;5.10;;;9.00;77.30;;;;;;5053516;28;20821;-74
2022/11/10 04:58:46;;;;;;;6.70;4.90;;;8.90;71.30;;;;;;5069249;28;20184;-73
2022/11/10 05:01:14;;;;;;;10.57;5.40;;;8.90;69.80;;;;;;5052757;28;20494;-73
2022/11/10 05:03:41;;;;;;;13.93;6.07;;;8.90;80.40;;;;;;5052834;28;20444;-79
2022/11/10 05:06:07;;;;;;;6.93;5.00;;;9.00;85.50;;;;;;5053610;28;20794;-73
2022/11/10 05:08:33;;;;;;;7.47;5.40;;;9.00;83.40;;;;;;5053270;28;20920;-79
2022/11/10 05:10:59;;;;;;;10.80;5.47;;;9.00;80.60;;;;;;5052858;28;20447;-79
2022/11/10 05:13:27;;;;;;;5.53;5.03;;;8.90;89.80;;;;;;5052585;28;20266;-74
2022/11/10 05:15:53;;;;;;;7.67;5.03;;;8.90;80.70;;;;;;5068166;28;20449;-80
2022/11/10 05:18:19;;;;;;;5.83;5.30;;;8.90;87.20;;;;;;5052205;28;21001;-79
2022/11/10 05:20:45;;;;;;;11.07;5.70;;;8.90;84.00;;;;;;5052639;28;20234;-73
2022/11/10 05:25:55;;;;;;;8.83;6.07;;;8.80;82.00;;;;;;5052821;28;20228;-74
2022/11/10 05:28:20;;;;;;;5.80;5.20;;;8.80;80.60;;;;;;5052936;28;20434;-74
2022/11/10 05:30:46;;;;;;;5.70;5.07;;;8.80;80.30;;;;;;5052311;28;20193;-80
2022/11/10 05:33:15;;;;;;;10.17;5.13;;;8.80;90.00;;;;;;5053371;28;20767;-80
2022/11/10 05:35:41;;;;;;;6.77;5.27;;;8.90;93.90;;;;;;5052290;28;20191;-80
2022/11/10 05:38:06;;;;;;;4.83;4.23;;;8.90;92.10;;;;;;5053197;28;20447;-74
2022/11/10 05:40:33;;;;;;;4.73;4.33;;;8.80;88.60;;;;;;5051443;28;20186;-74
2022/11/10 05:42:59;;;;;;;4.93;4.53;;;8.80;89.10;;;;;;5052555;28;20177;-74
2022/11/10 05:45:27;;;;;;;6.90;4.70;;;8.80;90.10;;;;;;5052261;28;20404;-80
2022/11/10 05:47:53;;;;;;;7.87;4.83;;;8.80;91.70;;;;;;5051984;28;20424;-80
2022/11/10 05:50:21;;;;;;;7.60;5.23;;;8.80;88.80;;;;;;5052143;28;20510;-77
2022/11/10 05:52:49;;;;;;;5.43;4.47;;;8.70;91.30;;;;;;5052878;28;20405;-74
2022/11/10 05:55:17;;;;;;;5.03;4.40;;;8.80;86.30;;;;;;5052176;28;20497;-80
2022/11/10 05:57:45;;;;;;;6.20;4.50;;;8.80;95.30;;;;;;5052971;28;20456;-74
2022/11/10 06:00:12;;;;;;;9.73;4.80;;;8.80;97.40;;;;;;5051382;28;20972;-74
2022/11/10 06:02:38;;;;;;;11.63;6.23;;;8.70;95.20;;;;;;5052655;28;20407;-74
2022/11/10 06:05:04;;;;;;;15.33;5.53;;;8.70;93.70;;;;;;5051972;28;20405;-74
2022/11/10 06:07:30;;;;;;;12.13;5.47;;;8.70;99.30;;;;;;5052971;28;20194;-76
2022/11/10 06:09:55;;;;;;;13.50;5.53;;;8.70;99.90;;;;;;5051519;28;20989;-75
2022/11/10 06:12:23;;;;;;;14.43;6.20;;;8.80;99.90;;;;;;5053198;28;20174;-74
2022/11/10 06:14:50;;;;;;;9.93;5.50;;;8.80;99.90;;;;;;5051959;28;20168;-74
2022/11/10 06:17:16;;;;;;;11.70;5.73;;;8.70;99.90;;;;;;5052970;28;20457;-79
2022/11/10 06:19:41;;;;;;;9.37;5.60;;;8.70;99.90;;;;;;5051844;28;20435;-81
2022/11/10 06:22:07;;;;;;;10.33;6.20;;;8.80;99.90;;;;;;5051665;28;20774;-80
2022/11/10 06:24:33;;;;;;;13.10;6.43;;;8.80;99.90;;;;;;5051973;28;20188;-79
2022/11/10 06:26:58;;;;;;;10.03;6.43;;;8.80;99.90;;;;;;5051996;28;20296;-74
2022/11/10 06:29:24;;;;;;;10.53;6.27;;;8.80;99.90;;;;;;5052944;28;20688;-74
2022/11/10 06:31:50;;;;;;;10.87;6.87;;;8.80;99.90;;;;;;5051878;28;20189;-80
2022/11/10 06:34:16;;;;;;;11.93;6.80;;;8.90;99.90;;;;;;5051963;28;20189;-80
2022/11/10 06:36:41;;;;;;;8.83;7.00;;;8.90;99.90;;;;;;5054463;28;20257;-75
2022/11/10 06:39:08;;;;;;;9.17;6.00;;;8.90;99.90;;;;;;5056405;28;20168;-80
2022/11/10 06:41:33;;;;;;;6.93;6.27;;;9.00;99.90;;;;;;5053839;28;20190;-72
2022/11/10 06:43:59;;;;;;;14.33;6.93;;;9.00;99.90;;;;;;5055647;28;20499;-72
2022/11/10 06:46:25;;;;;;;13.07;8.00;;;9.10;99.90;;;;;;5056245;28;20254;-71
2022/11/10 06:48:51;;;;;;;8.87;7.13;;;9.10;99.90;;;;;;5054959;28;20173;-73
2022/11/10 06:51:17;;;;;;;9.67;8.00;;;9.20;99.90;;;;;;5054172;28;20927;-76
2022/11/10 06:53:43;;;;;;;12.27;7.63;;;9.20;99.90;;;;;;5054941;28;20247;-79
2022/11/10 06:56:08;;;;;;;11.60;7.77;;;9.20;99.90;;;;;;5055983;28;20194;-79
2022/11/10 06:58:34;;;;;;;10.27;8.00;;;9.20;99.90;;;;;;5052663;28;20216;-79
2022/11/10 07:01:00;;;;;;;10.50;7.53;;;9.30;99.90;;;;;;5055928;28;20506;-77
2022/11/10 07:03:27;;;;;;;11.70;8.67;;;9.40;99.90;;;;;;5054877;28;20530;-74
2022/11/10 07:05:53;;;;;;;13.10;8.40;;;9.40;99.90;;;;;;5055299;28;20477;-79
2022/11/10 07:08:18;;;;;;;14.57;8.47;;;9.40;99.90;;;;;;5055072;28;20429;-77
2022/11/10 07:10:51;;;;;;;11.30;7.33;;;9.40;99.90;;;;;;5055262;28;20223;-78
2022/11/10 07:13:17;;;;;;;18.70;10.00;;;9.40;99.90;;;;;;5055836;28;20444;-78
2022/11/10 07:15:43;;;;;;;10.80;7.93;;;9.50;99.90;;;;;;5053642;28;20444;-79
2022/11/10 07:18:08;;;;;;;12.97;9.20;;;9.50;99.90;;;;;;5054370;28;20487;-74
2022/11/10 07:20:34;;;;;;;17.70;9.10;;;9.60;99.90;;;;;;5055741;28;20228;-74
2022/11/10 07:23:02;;;;;;;17.13;8.63;;;9.60;99.90;;;;;;5055794;28;20181;-75
2022/11/10 07:25:30;;;;;;;22.30;9.90;;;9.60;99.90;;;;;;5053374;28;20173;-75
2022/11/10 07:27:58;;;;;;;12.83;8.30;;;9.60;99.90;;;;;;5054832;28;20510;-74
2022/11/10 07:30:25;;;;;;;10.03;8.17;;;9.60;99.90;;;;;;5052562;28;20431;-80
2022/11/10 07:33:05;;;;;;;20.63;9.60;;;9.60;99.90;;;;;;5054886;28;20894;-80
2022/11/10 07:35:35;;;;;;;16.10;9.13;;;9.50;99.90;;;;;;5053169;28;20451;-74
2022/11/10 07:38:09;;;;;;;12.20;8.40;;;9.60;99.90;;;;;;5054925;28;20463;-74
2022/11/10 07:40:35;;;;;;;15.13;11.90;;;9.60;99.90;;;;;;5054406;28;20506;-74
2022/11/10 07:43:01;;;;;;;17.57;9.10;;;9.70;99.90;;;;;;5053151;28;20435;-72
2022/11/10 07:45:27;;;;;;;13.07;8.90;;;9.60;99.90;;;;;;5053953;28;20411;-73
2022/11/10 07:48:04;;;;;;;18.70;9.70;;;9.60;99.90;;;;;;5053493;28;20925;-77
2022/11/10 07:50:30;;;;;;;20.40;10.37;;;9.60;99.90;;;;;;5055220;28;20435;-78
2022/11/10 07:53:04;;;;;;;18.23;9.53;;;9.60;99.90;;;;;;5054141;28;20446;-78
2022/11/10 07:55:34;;;;;;;14.27;11.00;;;9.70;99.90;;;;;;5053758;28;20416;-78
2022/11/10 07:58:00;;;;;;;23.03;10.40;;;9.70;99.90;;;;;;5053765;28;21024;-78
2022/11/10 08:00:26;;;;;;;14.50;9.67;;;9.70;99.90;;;;;;5055102;28;20460;-78
2022/11/10 08:02:52;;;;;;;14.53;10.40;;;9.80;99.90;;;;;;5055080;28;20242;-78
2022/11/10 08:05:18;;;;;;;14.80;10.13;;;9.80;99.90;;;;;;5053806;28;20850;-78
2022/11/10 08:07:44;;;;;;;14.43;9.00;;;9.90;99.90;;;;;;5053909;28;20262;-79
2022/11/10 08:10:10;;;;;;;16.40;10.10;;;9.80;99.90;;;;;;5070177;28;20449;-78
2022/11/10 08:12:36;;;;;;;18.90;10.07;;;9.80;99.90;;;;;;5054421;28;20182;-78
2022/11/10 08:15:02;;;;;;;17.93;9.67;;;9.90;99.90;;;;;;5053499;28;20757;-73
2022/11/10 08:17:28;;;;;;;16.90;11.30;;;10.00;99.90;;;;;;5053735;28;20456;-73
2022/11/10 08:19:54;;;;;;;16.13;9.27;;;10.10;99.90;;;;;;5054608;28;20401;-77
2022/11/10 08:22:19;;;;;;;19.43;9.87;;;10.10;99.90;;;;;;5054604;28;20173;-74
2022/11/10 08:24:46;;;;;;;28.30;10.27;;;10.10;99.90;;;;;;5052705;28;20217;-74
2022/11/10 08:27:12;;;;;;;18.70;10.10;;;10.20;99.90;;;;;;5037254;28;20579;-73
2022/11/10 08:29:37;;;;;;;23.30;10.20;;;10.20;99.90;;;;;;5054410;28;20364;-74
2022/11/10 08:32:03;;;;;;;14.50;9.63;;;10.20;99.90;;;;;;5052840;28;20201;-74
2022/11/10 08:34:29;;;;;;;19.37;10.23;;;10.20;99.90;;;;;;5051757;28;20540;-76
2022/11/10 08:36:55;;;;;;;14.83;10.47;;;10.20;99.90;;;;;;5053441;28;20816;-78
2022/11/10 08:39:20;;;;;;;11.50;8.47;;;10.20;99.90;;;;;;5053790;28;20176;-73
2022/11/10 08:41:46;;;;;;;23.43;10.60;;;10.40;99.90;;;;;;5054095;28;20258;-75
2022/11/10 08:44:12;;;;;;;13.23;9.23;;;10.50;99.90;;;;;;5053254;28;20178;-76
2022/11/10 08:46:38;;;;;;;17.60;10.87;;;10.60;99.90;;;;;;5053876;28;20195;-77
2022/11/10 08:49:04;;;;;;;22.13;9.50;;;10.70;99.90;;;;;;5053305;28;20433;-76
2022/11/10 08:51:30;;;;;;;13.00;10.37;;;10.80;99.90;;;;;;5053535;28;20376;-78
2022/11/10 08:53:55;;;;;;;12.03;8.17;;;10.80;99.90;;;;;;5052130;28;20173;-78
2022/11/10 08:56:21;;;;;;;15.20;9.70;;;10.90;99.90;;;;;;5054059;28;20245;-74
2022/11/10 08:58:51;;;;;;;15.93;8.40;;;11.00;99.90;;;;;;5052891;28;20198;-77
2022/11/10 09:01:16;;;;;;;19.67;8.60;;;11.00;99.90;;;;;;5052681;28;20163;-77
2022/11/10 09:03:42;;;;;;;21.50;8.90;;;10.90;99.90;;;;;;5052227;28;20477;-76
2022/11/10 09:06:08;;;;;;;17.20;7.97;;;10.90;99.90;;;;;;5053375;28;20187;-78
2022/11/10 09:08:33;;;;;;;15.10;8.77;;;10.90;99.90;;;;;;5052262;28;20249;-75
2022/11/10 09:11:05;;;;;;;12.13;8.57;;;10.90;99.90;;;;;;5053282;28;20167;-79
2022/11/10 09:13:31;;;;;;;15.20;9.40;;;11.10;99.90;;;;;;5053466;28;20167;-79
2022/11/10 09:16:04;;;;;;;24.67;9.17;;;11.10;99.90;;;;;;5052535;28;20432;-79
2022/11/10 09:18:30;;;;;;;16.77;8.00;;;11.20;99.90;;;;;;5052604;28;20277;-79
2022/11/10 09:20:56;;;;;;;9.53;7.23;;;11.20;99.90;;;;;;5052384;28;20922;-75
2022/11/10 09:23:23;;;;;;;10.37;7.80;;;11.20;99.90;;;;;;5053268;28;20398;-80
2022/11/10 09:25:52;;;;;;;11.57;7.43;;;11.10;99.90;;;;;;5052528;28;20691;-75
2022/11/10 09:28:19;;;;;;;15.57;7.60;;;11.20;99.90;;;;;;5052033;28;20428;-79
2022/11/10 09:30:46;;;;;;;15.50;7.53;;;11.20;99.90;;;;;;5051035;28;20436;-79
2022/11/10 09:33:12;;;;;;;15.07;7.73;;;11.30;99.90;;;;;;5049901;28;20432;-76
2022/11/10 09:35:38;;;;;;;20.60;7.10;;;11.40;99.70;;;;;;5052306;28;20396;-79
2022/11/10 09:38:04;;;;;;;18.17;7.13;;;11.60;99.90;;;;;;5050355;28;20487;-79
2022/11/10 09:41:02;;;;;;;15.37;8.83;;;11.70;99.90;;;;;;5052806;28;20234;-78
2022/11/10 09:43:38;;;;;;;10.90;6.67;;;11.80;94.20;;;;;;5039585;28;20550;-80
2022/11/10 09:46:25;;;;;;;14.63;7.47;;;11.90;71.60;;;;;;5051891;28;20436;-79
2022/11/10 09:48:55;;;;;;;8.97;7.00;;;11.80;32.80;;;;;;5053411;28;20387;-76
2022/11/10 09:51:27;;;;;;;9.67;6.13;;;11.80;6.50;;;;;;5053026;28;20391;-76
2022/11/10 09:54:04;;;;;;;13.67;7.20;;;11.70;8.30;;;;;;5051343;28;20437;-79
2022/11/10 09:56:35;;;;;;;11.47;6.73;;;11.80;5.10;;;;;;5051101;28;20510;-77
2022/11/10 09:59:14;;;;;;;13.80;6.90;;;11.80;12.70;;;;;;5052439;28;20429;-76
2022/11/10 10:01:58;;;;;;;14.70;6.90;;;11.70;3.50;;;;;;5052131;28;20813;-76
2022/11/10 10:04:26;;;;;;;14.20;7.87;;;11.80;1.00;;;;;;5051004;28;20444;-79
2022/11/10 10:07:12;;;;;;;14.83;7.67;;;11.90;1.00;;;;;;5050697;28;20600;-79
2022/11/10 10:09:59;;;;;;;20.27;6.70;;;11.80;1.00;;;;;;5053861;28;20401;-75
2022/11/10 10:13:03;;;;;;;16.00;7.77;;;11.70;1.00;;;;;;5055467;28;20391;-78
2022/11/10 10:15:29;;;;;;;18.53;6.10;;;11.80;1.00;;;;;;5054041;28;20399;-77
2022/11/10 10:18:01;;;;;;;12.43;7.20;;;11.90;1.00;;;;;;5055393;28;20469;-78
2022/11/10 10:20:47;;;;;;;19.30;7.70;;;11.90;1.00;;;;;;5055031;28;20532;-76
2022/11/10 10:23:28;;;;;;;8.00;5.97;;;11.90;1.00;;;;;;5056915;28;20394;-75
2022/11/10 10:25:54;;;;;;;10.97;6.43;;;11.90;1.00;;;;;;5054913;28;20415;-78
2022/11/10 10:28:54;;;;;;;9.60;6.20;;;11.90;1.00;;;;;;5055599;28;20919;-76
2022/11/10 10:31:43;;;;;;;12.50;7.70;;;12.00;1.00;;;;;;5047040;28;20188;-75
2022/11/10 10:34:15;;;;;;;12.83;7.10;;;12.10;1.00;;;;;;5046311;28;20908;-77
2022/11/10 10:36:43;;;;;;;11.80;7.67;;;12.10;1.00;;;;;;5055013;28;20432;-78
2022/11/10 10:39:25;;;;;;;12.07;6.77;;;12.10;1.00;;;;;;5056826;28;20389;-75
2022/11/10 10:41:51;;;;;;;14.93;6.93;;;12.20;1.00;;;;;;5056253;28;20428;-75
2022/11/10 10:44:18;;;;;;;18.03;7.20;;;12.30;1.00;;;;;;5055261;28;20384;-73
2022/11/10 10:46:45;;;;;;;16.90;7.27;;;12.40;1.00;;;;;;5055062;28;20202;-79
2022/11/10 10:49:26;;;;;;;13.13;6.47;;;12.40;1.00;;;;;;5057377;28;20495;-77
2022/11/10 10:52:23;;;;;;;12.83;7.23;;;12.40;1.00;;;;;;5054419;28;20474;-77
2022/11/10 10:55:00;;;;;;;9.70;7.53;;;12.50;1.00;;;;;;5029616;28;20424;-76
2022/11/10 10:57:33;;;;;;;15.90;7.00;;;12.60;1.00;;;;;;5055698;28;20452;-77
2022/11/10 11:00:17;;;;;;;17.30;7.07;;;12.60;1.00;;;;;;5056147;28;20891;-74
2022/11/10 11:02:42;;;;;;;11.03;7.13;;;12.60;1.00;;;;;;5054855;28;20757;-78
2022/11/10 11:05:17;;;;;;;11.33;6.77;;;12.60;1.00;;;;;;5052575;28;20420;-77
2022/11/10 11:08:16;;;;;;;11.70;6.83;;;12.60;1.00;;;;;;5055844;28;20227;-77
2022/11/10 11:10:44;;;;;;;9.73;5.87;;;12.60;1.00;;;;;;5054196;28;20417;-75
2022/11/10 11:13:24;;;;;;;18.70;7.07;;;12.70;1.00;;;;;;5054712;28;20413;-79
2022/11/10 11:16:02;;;;;;;13.67;5.80;;;12.70;1.00;;;;;;5053791;28;20455;-74
2022/11/10 11:18:29;;;;;;;10.33;6.13;;;12.70;1.00;;;;;;5054222;28;20427;-73
2022/11/10 11:21:04;;;;;;;15.50;6.33;;;12.70;1.00;;;;;;5054592;28;20392;-75
2022/11/10 11:23:57;;;;;;;14.80;7.37;;;12.60;1.00;;;;;;5054125;28;20415;-74
2022/11/10 11:26:41;;;;;;;9.40;7.10;;;12.60;1.00;;;;;;5054268;28;20449;-74
2022/11/10 11:29:31;;;;;;;8.67;6.60;;;12.60;1.00;;;;;;5054228;28;20435;-77
2022/11/10 11:32:15;;;;;;;11.00;7.47;;;12.50;1.00;;;;;;5054305;28;21006;-79
2022/11/10 11:34:56;;;;;;;15.07;6.57;;;12.60;1.00;;;;;;5053540;28;20401;-78
2022/11/10 11:38:09;;;;;;;10.80;6.77;;;12.70;1.00;;;;;;5049813;28;20438;-79
2022/11/10 11:40:53;;;;;;;14.30;7.67;;;12.80;1.00;;;;;;5041217;28;20396;-76
2022/11/10 11:43:39;;;;;;;14.53;8.50;;;12.90;1.00;;;;;;5050211;28;20415;-79
2022/11/10 11:46:25;;;;;;;10.00;7.53;;;13.00;1.00;;;;;;5053877;28;20420;-78
2022/11/10 11:49:29;;;;;;;16.03;6.17;;;12.90;1.00;;;;;;5054450;28;20404;-74
2022/11/10 11:51:57;;;;;;;13.23;6.60;;;13.00;1.00;;;;;;5055062;28;20392;-73
2022/11/10 11:54:50;;;;;;;16.13;6.63;;;13.00;1.00;;;;;;5053425;28;20405;-76
2022/11/10 11:57:46;;;;;;;11.97;6.37;;;13.00;1.00;;;;;;5038146;28;20471;-77
2022/11/10 12:00:17;;;;;;;12.77;5.67;;;13.10;1.00;;;;;;5034694;28;20434;-75
2022/11/10 12:02:48;;;;;;;10.87;6.90;;;13.10;1.00;;;;;;5049577;28;20473;-75
2022/11/10 12:05:42;;;;;;;13.07;7.10;;;13.10;1.00;;;;;;5053106;28;20429;-81
2022/11/10 12:08:20;;;;;;;16.03;7.20;;;13.20;1.00;;;;;;5052505;28;20397;-75
2022/11/10 12:11:04;;;;;;;8.70;5.83;;;13.20;1.00;;;;;;5054499;28;20372;-75
2022/11/10 12:13:40;;;;;;;10.80;5.77;;;13.10;1.00;;;;;;5053645;28;20400;-80
2022/11/10 12:16:26;;;;;;;8.70;5.80;;;13.00;1.00;;;;;;5052632;28;20431;-74
2022/11/10 12:19:20;;;;;;;13.10;6.90;;;13.00;1.00;;;;;;5054139;28;20428;-78
2022/11/10 12:21:54;;;;;;;9.60;7.13;;;13.00;1.00;;;;;;5054376;28;20969;-76
2022/11/10 12:24:27;;;;;;;13.60;6.13;;;13.00;1.00;;;;;;5052691;28;20900;-80
2022/11/10 12:26:56;;;;;;;10.77;5.50;;;13.00;99.90;;;;;;5052419;28;20451;-75
2022/11/10 12:29:26;;;;;;;13.67;5.97;;;13.00;1.00;;;;;;5054531;28;20401;-80
2022/11/10 12:32:00;;;;;;;10.90;6.40;;;13.00;99.90;;;;;;5054143;28;20495;-80
2022/11/10 12:34:37;;;;;;;15.20;8.43;;;12.90;99.90;;;;;;5053469;28;20441;-75
2022/11/10 12:37:06;;;;;;;15.27;6.60;;;13.00;1.00;;;;;;5052323;28;20461;-75
2022/11/10 12:39:45;;;;;;;15.53;6.57;;;13.00;1.00;;;;;;5054294;28;20710;-75
2022/11/10 12:42:16;;;;;;;15.63;7.30;;;13.10;1.00;;;;;;5053054;28;20395;-81
2022/11/10 12:45:00;;;;;;;16.27;6.13;;;13.20;1.00;;;;;;5051976;28;20763;-79
2022/11/10 12:47:38;;;;;;;12.90;5.63;;;13.20;99.90;;;;;;5044495;28;20403;-80
2022/11/10 12:50:25;;;;;;;12.67;6.43;;;13.20;99.90;;;;;;5053434;28;20860;-79
2022/11/10 12:53:00;;;;;;;15.63;5.97;;;13.20;99.90;;;;;;5051304;28;20429;-75
2022/11/10 12:55:39;;;;;;;10.03;6.10;;;13.20;99.90;;;;;;5066600;28;20428;-79
2022/11/10 12:58:10;;;;;;;14.70;5.33;;;13.20;99.90;;;;;;5051379;28;20435;-80
2022/11/10 13:00:44;;;;;;;7.37;4.87;;;13.20;99.90;;;;;;5053899;28;20455;-75
2022/11/10 13:03:31;;;;;;;13.07;5.47;;;13.20;99.90;;;;;;5052534;28;20429;-79
2022/11/10 13:06:00;;;;;;;9.10;4.90;;;13.20;99.90;;;;;;5050688;28;20851;-75
2022/11/10 13:08:33;;;;;;;9.13;4.87;;;13.10;99.90;;;;;;5053899;28;20373;-77
2022/11/10 13:11:04;;;;;;;15.77;4.50;;;13.10;99.90;;;;;;5053417;28;20403;-77
2022/11/10 13:13:59;;;;;;;12.60;4.00;;;13.10;99.90;;;;;;5050696;28;20404;-77
2022/11/10 13:16:52;;;;;;;8.27;5.00;;;13.10;99.90;;;;;;5051832;28;20464;-80